Kezdőlap
METAR-TAF:

METAR-TAF

Repülőterek :

Båtsfjord, Norvégia

földrajzi szélesség: 70-38N, földrajzi hosszúság: 029-44E, magasság: 10 m

Jelenlegi meteorológiai megfigyelések

A jelentés 24 perccel ezelõtt készült, 10:20 UTC
Déli szél 21 kt
Hőmérséklet 1°C
Páratartalom 80%
Légköri nyomás 990 hPa
Látótávolság 10 km, vagy több
Szórványos felhőzet 1900 lábon

METAR: ENBS 131020Z 19021KT 9999 SCT019 01/M02 Q0990

Idő: 11:44 (10:44 UTC)


TAF: hiányzik

Meteorológiai megfigyelések és előrejelzések több, mint 4000 repülőtéren (METAR és TAF jelentéseket).

A térképen piros és sárga pontok jelzik az elérhető meteorológiai állomásokat.

Mozgassa az egeret a pont fölött, hogy megjelenjen az állomás neve.

Azután kattintson az időjárási megfigyelések és előrejelzések megtekintéséhez.

A térkép megváltoztatása: kattintson a fekete keresztel jelölt zöld gombra ráközelítéshez, a vonallal jelölt zöld gombra távolításhoz, vagy a zöld nyilakra a szomszédos térképek eléréséhez.


METAR-TAF: